GCXO/TFN METAR and TAF weather

Enter ICAO airport designator
Station Type Date Time Source
GCXO METAR 2020/11/28 20:30 UTC NOAA

GCXO 282030Z 27008KT 240V300 9999 FEW014 SCT020 14/12 Q1017 NOSIG


Station Type Date Time Source
GCXO Decoded METAR 2020/11/28 20:30 UTC NOAA

Tenerife / Los Rodeos, Spain (GCXO) 28-28N 016-19W 617M
Nov 28, 2020 - 03:30 PM EST / 2020.11.28 2030 UTC
Wind: from the W (270 degrees) at 9 MPH (8 KT) (direction variable):0
Visibility: greater than 7 mile(s):0
Sky conditions: partly cloudy
Temperature: 57 F (14 C)
Dew Point: 53 F (12 C)
Relative Humidity: 87%
Pressure (altimeter): 30.03 in. Hg (1017 hPa)
ob: GCXO 282030Z 27008KT 240V300 9999 FEW014 SCT020 14/12 Q1017 NOSIG
cycle: 20

Station Type Date Time Source
GCXO TAF 2020/11/28 21:27 UTC NOAA

TAF GCXO 282000Z 2821/2921 27009KT 9999 BKN015 TX16/2914Z TN12/2907Z
TEMPO 2900/2915 4000 RA BCFG BKN008 PROB40
TEMPO 2902/2912 1500 SHRA BCFG BKN003 SCT010TCU

Example: see airport list